Time;durP1;ratioP1;P1;durP2;ratioP2;P2;SDS_P1;SDS_P2;PMS_P1;PMS_P2;Temp;Humidity;BMP_temperature;BMP_pressure;BME280_temperature;BME280_humidity;BME280_pressure;Samples;Min_cycle;Max_cycle;Signal;HPM_P1;HPM_P2
2022/05/25 00:01:06;;;;;;;18.50;11.37;;;;;;;-145.18;100.00;60484.78;5045445;28;20468;-68
2022/05/25 00:03:33;;;;;;;11.93;9.50;;;;;;;-145.18;100.00;60484.78;5038357;28;20120;-68
2022/05/25 00:06:01;;;;;;;14.03;10.13;;;;;;;-145.18;100.00;60484.78;5035008;28;20502;-68
2022/05/25 00:08:27;;;;;;;12.70;9.87;;;;;;;-145.18;100.00;60484.78;5032571;28;20033;-68
2022/05/25 00:10:53;;;;;;;12.90;10.13;;;;;;;-145.18;100.00;60484.78;5040863;28;20959;-68
2022/05/25 00:13:19;;;;;;;12.40;9.90;;;;;;;-145.18;100.00;60484.78;5040788;28;20099;-68
2022/05/25 00:15:44;;;;;;;14.13;11.10;;;;;;;-145.18;100.00;60484.78;5037742;28;20022;-68
2022/05/25 00:18:09;;;;;;;16.23;11.30;;;;;;;-145.18;100.00;60484.78;5036696;28;20032;-68
2022/05/25 00:20:35;;;;;;;17.10;12.30;;;;;;;-145.18;100.00;60484.78;5042780;28;20048;-68
2022/05/25 00:23:02;;;;;;;16.87;12.47;;;;;;;-145.18;100.00;60484.78;5031663;28;20021;-68
2022/05/25 00:25:34;;;;;;;17.17;12.03;;;;;;;-145.18;100.00;60484.78;5040506;28;20033;-68
2022/05/25 00:28:06;;;;;;;17.43;13.13;;;;;;;-145.18;100.00;60484.78;5036954;28;20029;-68
2022/05/25 00:30:32;;;;;;;18.27;13.30;;;;;;;-145.18;100.00;60484.78;5037760;28;20079;-68
2022/05/25 00:33:00;;;;;;;18.43;13.80;;;;;;;-145.18;100.00;60484.78;5041924;28;20478;-68
2022/05/25 00:35:28;;;;;;;19.73;13.97;;;;;;;-145.18;100.00;60484.78;5032981;28;20052;-68
2022/05/25 00:37:53;;;;;;;18.60;13.17;;;;;;;-145.18;100.00;60484.78;5038016;28;20032;-68
2022/05/25 00:40:24;;;;;;;23.37;14.47;;;;;;;-145.18;100.00;60484.78;5041879;28;20490;-68
2022/05/25 00:42:49;;;;;;;23.10;15.13;;;;;;;-145.18;100.00;60484.78;5034334;28;20032;-68
2022/05/25 00:45:15;;;;;;;20.73;15.67;;;;;;;-145.18;100.00;60484.78;5038857;28;20028;-68
2022/05/25 00:47:44;;;;;;;25.97;16.33;;;;;;;-145.18;100.00;60484.78;5043063;28;20029;-68
2022/05/25 00:50:13;;;;;;;24.83;16.73;;;;;;;-145.18;100.00;60484.78;5044229;28;20032;-68
2022/05/25 00:52:41;;;;;;;23.93;16.63;;;;;;;-145.18;100.00;60484.78;5041458;28;20040;-68
2022/05/25 00:55:08;;;;;;;23.07;16.47;;;;;;;-145.18;100.00;60484.78;5037539;28;20531;-68
2022/05/25 00:57:38;;;;;;;24.13;17.10;;;;;;;-145.18;100.00;60484.78;5042040;28;20454;-68
2022/05/25 01:00:14;;;;;;;24.47;16.60;;;;;;;-145.18;100.00;60484.78;5033266;28;20037;-68
2022/05/25 01:02:51;;;;;;;25.40;17.07;;;;;;;-145.18;100.00;60484.78;5037702;28;20877;-68
2022/05/25 01:05:21;;;;;;;28.07;17.20;;;;;;;-145.18;100.00;60484.78;5046422;28;20029;-68
2022/05/25 01:07:56;;;;;;;25.87;18.03;;;;;;;-145.18;100.00;60484.78;5039452;28;20032;-68
2022/05/25 01:10:32;;;;;;;22.87;16.63;;;;;;;-145.18;100.00;60484.78;5027729;28;20132;-68
2022/05/25 01:13:06;;;;;;;24.03;16.87;;;;;;;-145.18;100.00;60484.78;5037384;28;20095;-68
2022/05/25 01:15:57;;;;;;;25.27;17.13;;;;;;;-145.18;100.00;60484.78;5033034;28;20041;-68
2022/05/25 01:18:56;;;;;;;25.47;18.63;;;;;;;-145.18;100.00;60484.78;5040259;28;20033;-68
2022/05/25 01:21:33;;;;;;;29.20;18.33;;;;;;;-145.18;100.00;60484.78;5038786;28;20485;-68
2022/05/25 01:24:18;;;;;;;29.60;19.83;;;;;;;-145.18;100.00;60484.78;5032651;28;20033;-68
2022/05/25 01:26:52;;;;;;;27.23;18.70;;;;;;;-145.18;100.00;60484.78;5039383;28;20025;-68
2022/05/25 01:29:45;;;;;;;30.27;19.47;;;;;;;-145.18;100.00;60484.78;5031221;28;20036;-68
2022/05/25 01:32:35;;;;;;;29.47;20.07;;;;;;;-145.18;100.00;60484.78;5034872;28;20036;-68
2022/05/25 01:35:13;;;;;;;29.20;19.70;;;;;;;-145.18;100.00;60484.78;5031368;28;20425;-68
2022/05/25 01:37:46;;;;;;;33.80;21.07;;;;;;;-145.18;100.00;60484.78;5032596;28;20086;-68
2022/05/25 01:40:23;;;;;;;31.83;21.23;;;;;;;-145.18;100.00;60484.78;5034469;28;20055;-68
2022/05/25 01:43:08;;;;;;;32.23;21.13;;;;;;;-145.18;100.00;60484.78;5036624;28;20128;-68
2022/05/25 01:45:41;;;;;;;30.03;20.77;;;;;;;-145.18;100.00;60484.78;5032061;28;20041;-68
2022/05/25 01:48:10;;;;;;;33.33;21.33;;;;;;;-145.18;100.00;60484.78;5035727;28;20033;-68
2022/05/25 01:50:44;;;;;;;31.40;21.07;;;;;;;-145.18;100.00;60484.78;5043556;28;20037;-68
2022/05/25 01:53:13;;;;;;;35.63;21.93;;;;;;;-145.18;100.00;60484.78;5028165;28;20034;-68
2022/05/25 01:55:47;;;;;;;37.87;23.33;;;;;;;-145.18;100.00;60484.78;5034846;28;20021;-68
2022/05/25 01:58:16;;;;;;;39.03;23.27;;;;;;;-145.18;100.00;60484.78;5038659;28;20404;-68
2022/05/25 02:00:45;;;;;;;45.50;26.33;;;;;;;-145.18;100.00;60484.78;5040895;28;20066;-68
2022/05/25 02:06:09;;;;;;;53.40;28.93;;;;;;;-145.18;100.00;60484.78;5046816;28;20040;-68
2022/05/25 02:08:42;;;;;;;55.60;29.60;;;;;;;-145.18;100.00;60484.78;5040705;28;20031;-68
2022/05/25 02:11:23;;;;;;;53.63;29.33;;;;;;;-145.18;100.00;60484.78;5048237;28;20029;-68
2022/05/25 02:14:00;;;;;;;55.70;30.60;;;;;;;-145.18;100.00;60484.78;5040624;28;20033;-68
2022/05/25 02:16:41;;;;;;;54.73;29.70;;;;;;;-145.18;100.00;60484.78;5040458;28;20029;-68
2022/05/25 02:19:57;;;;;;;52.43;29.90;;;;;;;-145.18;100.00;60484.78;5042248;28;20025;-68
2022/05/25 02:23:02;;;;;;;55.03;29.43;;;;;;;-145.18;100.00;60484.78;5025373;28;20036;-68
2022/05/25 02:26:04;;;;;;;55.53;30.07;;;;;;;-145.18;100.00;60484.78;5021727;28;20547;-68
2022/05/25 02:28:34;;;;;;;;;;;;;;;-145.18;100.00;60484.78;5013429;28;20183;-68
2022/05/25 02:31:04;;;;;;;60.17;30.63;;;;;;;-145.18;100.00;60484.78;5024723;28;19913;-68
2022/05/25 02:33:44;;;;;;;68.10;34.07;;;;;;;-145.18;100.00;60484.78;5025549;28;20029;-68
2022/05/25 02:36:11;;;;;;;68.50;33.37;;;;;;;-145.18;100.00;60484.78;5022222;28;20118;-68
2022/05/25 02:38:38;;;;;;;73.23;35.10;;;;;;;-145.18;100.00;60484.78;5020554;28;20049;-68
2022/05/25 02:41:25;;;;;;;77.57;35.17;;;;;;;-145.18;100.00;60484.78;5025836;28;20041;-68
2022/05/25 02:43:50;;;;;;;76.87;35.13;;;;;;;-145.18;100.00;60484.78;5026180;28;20042;-68
2022/05/25 02:46:15;;;;;;;76.77;35.20;;;;;;;-145.18;100.00;60484.78;5025093;28;20414;-68
2022/05/25 02:48:41;;;;;;;78.43;35.40;;;;;;;-145.18;100.00;60484.78;5024830;28;20063;-68
2022/05/25 02:51:07;;;;;;;76.63;37.17;;;;;;;-145.18;100.00;60484.78;5023165;28;20121;-68
2022/05/25 02:53:34;;;;;;;75.07;36.37;;;;;;;-145.18;100.00;60484.78;5025484;28;20037;-68
2022/05/25 02:56:00;;;;;;;78.00;36.37;;;;;;;-145.18;100.00;60484.78;5030084;28;20064;-68
2022/05/25 02:58:27;;;;;;;78.43;35.63;;;;;;;-145.18;100.00;60484.78;5049086;28;20033;-68
2022/05/25 03:00:53;;;;;;;74.77;37.50;;;;;;;-145.18;100.00;60484.78;5045899;28;20091;-68
2022/05/25 03:03:19;;;;;;;76.40;36.90;;;;;;;-145.18;100.00;60484.78;5041162;28;20025;-68
2022/05/25 03:05:44;;;;;;;79.23;36.63;;;;;;;-145.18;100.00;60484.78;5043917;28;20028;-68
2022/05/25 03:08:09;;;;;;;76.13;36.47;;;;;;;-145.18;100.00;60484.78;5042339;28;20103;-68
2022/05/25 03:10:35;;;;;;;68.83;34.27;;;;;;;-145.18;100.00;60484.78;5048078;28;20063;-68
2022/05/25 03:13:01;;;;;;;68.50;33.17;;;;;;;-145.18;100.00;60484.78;5045170;28;20091;-68
2022/05/25 03:15:27;;;;;;;63.37;33.10;;;;;;;-145.18;100.00;60484.78;5046392;28;20035;-68
2022/05/25 03:17:53;;;;;;;71.87;33.80;;;;;;;-145.18;100.00;60484.78;5047112;28;20202;-68
2022/05/25 03:20:19;;;;;;;70.33;34.67;;;;;;;-145.18;100.00;60484.78;5041910;28;20029;-68
2022/05/25 03:22:44;;;;;;;76.23;34.33;;;;;;;-145.18;100.00;60484.78;5046803;28;20468;-68
2022/05/25 03:25:13;;;;;;;65.47;32.87;;;;;;;-145.18;100.00;60484.78;5048872;28;20104;-68
2022/05/25 03:27:39;;;;;;;63.47;33.07;;;;;;;-145.18;100.00;60484.78;5044372;28;20033;-68
2022/05/25 03:30:07;;;;;;;63.17;32.00;;;;;;;-145.18;100.00;60484.78;5041064;28;20064;-68
2022/05/25 03:32:32;;;;;;;69.17;32.43;;;;;;;-145.18;100.00;60484.78;5039901;28;20064;-68
2022/05/25 03:34:59;;;;;;;63.47;31.90;;;;;;;-145.18;100.00;60484.78;5042483;28;20114;-68
2022/05/25 03:37:25;;;;;;;61.60;32.23;;;;;;;-145.18;100.00;60484.78;5037408;28;20116;-68
2022/05/25 03:39:50;;;;;;;70.37;32.90;;;;;;;-145.18;100.00;60484.78;5039150;28;20132;-67
2022/05/25 03:42:17;;;;;;;69.00;32.67;;;;;;;-145.18;100.00;60484.78;5039817;28;20021;-67
2022/05/25 03:44:43;;;;;;;71.13;32.30;;;;;;;-145.18;100.00;60484.78;5046465;28;20721;-67
2022/05/25 03:47:08;;;;;;;69.13;33.37;;;;;;;-145.18;100.00;60484.78;5045038;28;20028;-67
2022/05/25 03:49:34;;;;;;;66.53;33.17;;;;;;;-145.18;100.00;60484.78;5042505;28;20056;-67
2022/05/25 03:51:59;;;;;;;65.13;32.43;;;;;;;-145.18;100.00;60484.78;5043743;28;20037;-68
2022/05/25 03:54:25;;;;;;;60.30;31.23;;;;;;;-145.18;100.00;60484.78;5047251;28;20028;-67
2022/05/25 03:56:50;;;;;;;63.10;31.80;;;;;;;-145.18;100.00;60484.78;5042754;28;20377;-67
2022/05/25 03:59:16;;;;;;;63.67;31.97;;;;;;;-145.18;100.00;60484.78;5048223;28;20053;-67
2022/05/25 04:01:41;;;;;;;62.80;32.03;;;;;;;-145.18;100.00;60484.78;5044539;28;20128;-67
2022/05/25 04:04:07;;;;;;;45.67;27.07;;;;;;;-145.18;100.00;60484.78;5040613;28;20780;-67
2022/05/25 04:06:32;;;;;;;35.57;21.80;;;;;;;-145.18;100.00;60484.78;5039026;28;20032;-67
2022/05/25 04:08:58;;;;;;;27.57;19.40;;;;;;;-145.18;100.00;60484.78;5044501;28;20031;-67
2022/05/25 04:11:24;;;;;;;23.60;16.83;;;;;;;-145.18;100.00;60484.78;5044824;28;20044;-67
2022/05/25 04:13:49;;;;;;;21.47;14.97;;;;;;;-145.18;100.00;60484.78;5038929;28;20108;-67
2022/05/25 04:16:15;;;;;;;16.93;12.83;;;;;;;-145.18;100.00;60484.78;5035826;28;20029;-67
2022/05/25 04:18:40;;;;;;;17.77;11.83;;;;;;;-145.18;100.00;60484.78;5035624;28;20615;-67
2022/05/25 04:21:06;;;;;;;18.00;11.80;;;;;;;-145.18;100.00;60484.78;5045581;28;20033;-68
2022/05/25 04:23:31;;;;;;;15.57;11.17;;;;;;;-145.18;100.00;60484.78;5046779;28;20054;-68
2022/05/25 04:25:57;;;;;;;15.27;10.93;;;;;;;-145.18;100.00;60484.78;5037554;28;20071;-68
2022/05/25 04:28:22;;;;;;;14.77;11.40;;;;;;;-145.18;100.00;60484.78;5041797;28;20033;-68
2022/05/25 04:30:48;;;;;;;14.00;10.83;;;;;;;-145.18;100.00;60484.78;5036224;28;20060;-68
2022/05/25 04:33:14;;;;;;;15.57;11.13;;;;;;;-145.18;100.00;60484.78;5039559;28;20036;-68
2022/05/25 04:35:40;;;;;;;15.93;10.60;;;;;;;-145.18;100.00;60484.78;5034524;28;20386;-68
2022/05/25 04:38:07;;;;;;;13.03;9.80;;;;;;;-145.18;100.00;60484.78;5046312;28;20043;-68
2022/05/25 04:40:32;;;;;;;14.30;9.83;;;;;;;-145.18;100.00;60484.78;5037653;28;20382;-68
2022/05/25 04:43:00;;;;;;;13.13;10.50;;;;;;;-145.18;100.00;60484.78;5041665;28;20090;-68
2022/05/25 04:45:26;;;;;;;12.77;9.40;;;;;;;-145.18;100.00;60484.78;5043303;28;20029;-68
2022/05/25 04:47:54;;;;;;;12.63;8.97;;;;;;;-145.18;100.00;60484.78;5038132;28;20029;-68
2022/05/25 04:50:22;;;;;;;14.47;9.37;;;;;;;-145.18;100.00;60484.78;5047108;28;20493;-68
2022/05/25 04:52:48;;;;;;;11.37;8.70;;;;;;;-145.18;100.00;60484.78;5042550;28;20044;-68
2022/05/25 04:58:00;;;;;;;11.55;9.00;;;;;;;-145.18;100.00;60484.78;5030934;28;20099;-68
2022/05/25 05:00:27;;;;;;;12.77;9.55;;;;;;;-145.18;100.00;60484.78;5035889;28;20039;-68
2022/05/25 05:02:52;;;;;;;11.00;8.90;;;;;;;-145.18;100.00;60484.78;5031008;28;20029;-68
2022/05/25 05:05:18;;;;;;;12.70;8.57;;;;;;;-145.18;100.00;60484.78;5040172;28;20094;-68
2022/05/25 05:07:44;;;;;;;11.10;9.15;;;;;;;-145.18;100.00;60484.78;5044631;28;20102;-68
2022/05/25 05:10:10;;;;;;;11.75;9.27;;;;;;;-145.18;100.00;60484.78;5045585;28;20036;-68
2022/05/25 05:12:36;;;;;;;11.90;9.20;;;;;;;-145.18;100.00;60484.78;5047069;28;20164;-68
2022/05/25 05:15:03;;;;;;;14.75;9.10;;;;;;;-145.18;100.00;60484.78;5043348;28;20031;-68
2022/05/25 05:17:29;;;;;;;11.70;9.07;;;;;;;-145.18;100.00;60484.78;5047057;28;20507;-68
2022/05/25 05:19:56;;;;;;;12.52;9.68;;;;;;;-145.18;100.00;60484.78;5040036;28;20021;-68
2022/05/25 05:22:22;;;;;;;12.32;8.93;;;;;;;-145.18;100.00;60484.78;5042899;28;20035;-68
2022/05/25 05:24:47;;;;;;;12.20;9.10;;;;;;;-145.18;100.00;60484.78;5043036;28;20040;-68
2022/05/25 05:27:13;;;;;;;12.63;9.45;;;;;;;-145.18;100.00;60484.78;5045611;28;20040;-68
2022/05/25 05:29:38;;;;;;;12.63;9.27;;;;;;;-145.18;100.00;60484.78;5035738;28;20197;-68
2022/05/25 05:32:04;;;;;;;11.20;9.13;;;;;;;-145.18;100.00;60484.78;5037391;28;20040;-68
2022/05/25 05:34:30;;;;;;;11.82;9.00;;;;;;;-145.18;100.00;60484.78;5038285;28;20031;-68
2022/05/25 05:37:11;;;;;;;13.23;9.20;;;;;;;-145.18;100.00;60484.78;5037954;28;20017;-68
2022/05/25 05:39:39;;;;;;;;;;;;;;;-145.18;100.00;60484.78;5034798;28;20401;-69
2022/05/25 05:42:12;;;;;;;14.73;9.13;;;;;;;-145.18;100.00;60484.78;5048204;28;19923;-68
2022/05/25 05:44:45;;;;;;;11.93;9.50;;;;;;;-145.18;100.00;60484.78;5048270;28;20041;-68
2022/05/25 05:47:14;;;;;;;11.27;8.48;;;;;;;-145.18;100.00;60484.78;5053029;28;20032;-68
2022/05/25 05:49:40;;;;;;;11.90;8.98;;;;;;;-145.18;100.00;60484.78;5051365;28;20049;-68
2022/05/25 05:52:06;;;;;;;11.93;8.10;;;;;;;-145.18;100.00;60484.78;5048597;28;20535;-68
2022/05/25 05:54:32;;;;;;;11.70;7.90;;;;;;;-145.18;100.00;60484.78;5049491;28;20272;-68
2022/05/25 05:56:58;;;;;;;12.13;8.80;;;;;;;-145.18;100.00;60484.78;5052726;28;20056;-68
2022/05/25 05:59:23;;;;;;;12.00;8.73;;;;;;;-145.18;100.00;60484.78;5048635;28;20024;-68
2022/05/25 06:01:49;;;;;;;13.15;8.07;;;;;;;-145.18;100.00;60484.78;5053535;28;20082;-68
2022/05/25 06:04:14;;;;;;;13.05;7.63;;;;;;;-145.18;100.00;60484.78;5048240;28;20474;-68
2022/05/25 06:06:40;;;;;;;9.85;7.22;;;;;;;-145.18;100.00;60484.78;5053269;28;20074;-68
2022/05/25 06:09:05;;;;;;;10.68;7.50;;;;;;;-145.18;100.00;60484.78;5047809;28;20525;-68
2022/05/25 06:11:32;;;;;;;11.85;7.75;;;;;;;-145.18;100.00;60484.78;5051534;28;20024;-68
2022/05/25 06:13:58;;;;;;;9.57;7.38;;;;;;;-145.18;100.00;60484.78;5051978;28;20035;-68
2022/05/25 06:19:26;;;;;;;10.85;6.20;;;;;;;-145.18;100.00;60484.78;5046637;28;20520;-68
2022/05/25 06:22:03;;;;;;;9.95;7.15;;;;;;;-145.18;100.00;60484.78;5051230;28;20032;-68
2022/05/25 06:24:33;;;;;;;9.13;5.85;;;;;;;-145.18;100.00;60484.78;5051625;28;20021;-68
2022/05/25 06:26:59;;;;;;;9.90;6.05;;;;;;;-145.18;100.00;60484.78;5049439;28;20032;-68
2022/05/25 06:29:24;;;;;;;8.45;6.07;;;;;;;-145.18;100.00;60484.78;5044890;28;20029;-68
2022/05/25 06:31:50;;;;;;;7.38;5.38;;;;;;;-145.18;100.00;60484.78;5053126;28;20032;-68
2022/05/25 06:34:16;;;;;;;6.70;5.15;;;;;;;-145.18;100.00;60484.78;5050902;28;20147;-68
2022/05/25 06:36:42;;;;;;;8.35;5.40;;;;;;;-145.18;100.00;60484.78;5051292;28;20481;-68
2022/05/25 06:39:07;;;;;;;8.40;5.80;;;;;;;-145.18;100.00;60484.78;5052935;28;20067;-68
2022/05/25 06:41:33;;;;;;;9.95;6.05;;;;;;;-145.18;100.00;60484.78;5046327;28;20028;-68
2022/05/25 06:44:00;;;;;;;9.07;5.70;;;;;;;-145.18;100.00;60484.78;5049732;28;20032;-68
2022/05/25 06:46:25;;;;;;;8.95;5.28;;;;;;;-145.18;100.00;60484.78;5050090;28;20024;-68
2022/05/25 06:48:53;;;;;;;8.35;5.22;;;;;;;-145.18;100.00;60484.78;5051054;28;20119;-68
2022/05/25 06:51:31;;;;;;;7.70;5.18;;;;;;;-145.18;100.00;60484.78;5051994;28;20416;-68
2022/05/25 06:53:57;;;;;;;12.90;5.65;;;;;;;-145.18;100.00;60484.78;5048530;28;20029;-68
2022/05/25 06:56:24;;;;;;;6.60;4.45;;;;;;;-145.18;100.00;60484.78;5047919;28;20024;-68
2022/05/25 06:58:53;;;;;;;7.70;4.57;;;;;;;-145.18;100.00;60484.78;5045885;28;20036;-68
2022/05/25 07:01:20;;;;;;;10.20;4.82;;;;;;;-145.18;100.00;60484.78;5046905;28;20730;-68
2022/05/25 07:03:45;;;;;;;10.73;4.90;;;;;;;-145.18;100.00;60484.78;5044650;28;20025;-68
2022/05/25 07:06:13;;;;;;;8.30;4.50;;;;;;;-145.18;100.00;60484.78;5049100;28;20037;-68
2022/05/25 07:08:39;;;;;;;10.25;4.70;;;;;;;-145.18;100.00;60484.78;5048273;28;20047;-68
2022/05/25 07:11:05;;;;;;;8.88;4.68;;;;;;;-145.18;100.00;60484.78;5048874;28;20528;-68
2022/05/25 07:13:30;;;;;;;7.15;4.03;;;;;;;-145.18;100.00;60484.78;5045081;28;20024;-68
2022/05/25 07:15:57;;;;;;;8.15;4.82;;;;;;;-145.18;100.00;60484.78;5046245;28;20102;-68
2022/05/25 07:18:23;;;;;;;10.18;4.95;;;;;;;-145.18;100.00;60484.78;5046393;28;20021;-68
2022/05/25 07:20:49;;;;;;;7.90;4.63;;;;;;;-145.18;100.00;60484.78;5049119;28;20086;-68
2022/05/25 07:23:15;;;;;;;8.10;4.22;;;;;;;-145.18;100.00;60484.78;5043685;28;20418;-68
2022/05/25 07:25:41;;;;;;;8.40;4.65;;;;;;;-145.18;100.00;60484.78;5046602;28;20097;-68
2022/05/25 07:28:06;;;;;;;8.07;4.90;;;;;;;-145.18;100.00;60484.78;5047519;28;20033;-68
2022/05/25 07:30:33;;;;;;;7.53;4.70;;;;;;;-145.18;100.00;60484.78;5044449;28;20025;-68
2022/05/25 07:32:59;;;;;;;9.57;5.45;;;;;;;-145.18;100.00;60484.78;5046475;28;20025;-68
2022/05/25 07:35:24;;;;;;;7.45;4.65;;;;;;;-145.18;100.00;60484.78;5036946;28;20036;-68
2022/05/25 07:37:54;;;;;;;6.68;4.35;;;;;;;-145.18;100.00;60484.78;5048743;28;20135;-68
2022/05/25 07:40:25;;;;;;;9.52;4.60;;;;;;;-145.18;100.00;60484.78;5045562;28;20139;-68
2022/05/25 07:42:56;;;;;;;;;;;;;;;-145.18;100.00;60484.78;5048880;28;20082;-68
2022/05/25 07:45:23;;;;;;;9.00;4.50;;;;;;;-145.18;100.00;60484.78;5047189;28;19924;-69
2022/05/25 07:47:51;;;;;;;10.73;5.30;;;;;;;-145.18;100.00;60484.78;5048119;28;20021;-68
2022/05/25 07:50:17;;;;;;;6.72;4.38;;;;;;;-145.18;100.00;60484.78;5045781;28;20025;-68
2022/05/25 07:52:42;;;;;;;5.00;3.50;;;;;;;-145.18;100.00;60484.78;5044633;28;20409;-68
2022/05/25 07:55:09;;;;;;;6.50;3.55;;;;;;;-145.18;100.00;60484.78;5042849;28;20082;-68
2022/05/25 07:57:35;;;;;;;7.57;3.60;;;;;;;-145.18;100.00;60484.78;5048356;28;20039;-68
2022/05/25 08:00:01;;;;;;;7.88;3.80;;;;;;;-145.18;100.00;60484.78;5041244;28;20071;-68
2022/05/25 08:08:04;;;;;;;6.30;2.90;;;;;;;-145.18;100.00;60484.78;5047103;28;20098;-68
2022/05/25 08:10:30;;;;;;;5.28;2.70;;;;;;;-145.18;100.00;60484.78;5047653;28;20044;-68
2022/05/25 08:12:58;;;;;;;5.90;2.60;;;;;;;-145.18;100.00;60484.78;5047288;28;20461;-68
2022/05/25 08:15:26;;;;;;;4.20;2.60;;;;;;;-145.18;100.00;60484.78;5048234;28;20020;-68
2022/05/25 08:17:51;;;;;;;5.47;2.63;;;;;;;-145.18;100.00;60484.78;5045843;28;20128;-68
2022/05/25 08:20:19;;;;;;;4.05;2.20;;;;;;;-145.18;100.00;60484.78;5048030;28;20111;-68
2022/05/25 08:22:45;;;;;;;4.70;2.45;;;;;;;-145.18;100.00;60484.78;5046826;28;20025;-69
2022/05/25 08:25:12;;;;;;;6.10;2.17;;;;;;;-145.18;100.00;60484.78;5046924;28;20219;-68
2022/05/25 08:27:39;;;;;;;5.47;2.25;;;;;;;-145.18;100.00;60484.78;5037220;28;20470;-68
2022/05/25 08:30:09;;;;;;;3.55;2.20;;;;;;;-145.18;100.00;60484.78;5038918;28;20025;-69
2022/05/25 08:32:35;;;;;;;5.97;2.50;;;;;;;-145.18;100.00;60484.78;5044769;28;20044;-69
2022/05/25 08:35:01;;;;;;;5.95;2.10;;;;;;;-145.18;100.00;60484.78;5048322;28;20447;-68
2022/05/25 08:37:26;;;;;;;4.72;2.20;;;;;;;-145.18;100.00;60484.78;5044816;28;20444;-68
2022/05/25 08:39:52;;;;;;;5.40;2.45;;;;;;;-145.18;100.00;60484.78;5046405;28;20083;-68
2022/05/25 08:42:20;;;;;;;5.07;2.22;;;;;;;-145.18;100.00;60484.78;5041171;28;20112;-68
2022/05/25 08:44:48;;;;;;;5.45;2.15;;;;;;;-145.18;100.00;60484.78;5046726;28;20503;-69
2022/05/25 08:47:14;;;;;;;4.53;2.30;;;;;;;-145.18;100.00;60484.78;5046238;28;20031;-69
2022/05/25 08:49:42;;;;;;;6.38;2.83;;;;;;;-145.18;100.00;60484.78;5047090;28;20116;-68
2022/05/25 08:52:22;;;;;;;5.68;2.55;;;;;;;-145.18;100.00;60484.78;5047187;28;20028;-68
2022/05/25 08:54:47;;;;;;;5.53;2.80;;;;;;;-145.18;100.00;60484.78;5046732;28;20061;-68
2022/05/25 08:57:21;;;;;;;7.63;3.08;;;;;;;-145.18;100.00;60484.78;5040561;28;20052;-68
2022/05/25 08:59:51;;;;;;;4.88;2.75;;;;;;;-145.18;100.00;60484.78;5045375;28;20650;-68
2022/05/25 09:02:45;;;;;;;4.90;2.60;;;;;;;-145.18;100.00;60484.78;5047386;28;20043;-68
2022/05/25 09:05:22;;;;;;;5.30;2.88;;;;;;;-145.18;100.00;60484.78;5044805;28;20029;-68
2022/05/25 09:08:09;;;;;;;8.25;3.30;;;;;;;-145.18;100.00;60484.78;5047158;28;20542;-68
2022/05/25 09:10:48;;;;;;;9.88;2.70;;;;;;;-145.18;100.00;60484.78;5047372;28;20111;-68
2022/05/25 09:13:18;;;;;;;7.68;2.95;;;;;;;-145.18;100.00;60484.78;5044703;28;20115;-68
2022/05/25 09:18:39;;;;;;;5.67;2.97;;;;;;;-145.18;100.00;60484.78;5035986;28;20244;-68
2022/05/25 09:21:06;;;;;;;4.70;2.88;;;;;;;-145.18;100.00;60484.78;5047056;28;20033;-68
2022/05/25 09:23:32;;;;;;;4.60;2.60;;;;;;;-145.18;100.00;60484.78;5041413;28;20120;-67
2022/05/25 09:25:59;;;;;;;4.05;2.13;;;;;;;-145.18;100.00;60484.78;5046348;28;20108;-68
2022/05/25 09:28:40;;;;;;;4.60;2.53;;;;;;;-145.18;100.00;60484.78;5044347;28;20123;-68
2022/05/25 09:31:07;;;;;;;5.53;2.58;;;;;;;-145.18;100.00;60484.78;5047108;28;20095;-68
2022/05/25 09:33:42;;;;;;;4.03;2.30;;;;;;;-145.18;100.00;60484.78;5043606;28;20651;-69
2022/05/25 09:36:23;;;;;;;5.70;2.45;;;;;;;-145.18;100.00;60484.78;5039824;28;20064;-68
2022/05/25 09:39:04;;;;;;;5.75;2.50;;;;;;;-145.18;100.00;60484.78;5046552;28;20032;-68
2022/05/25 09:41:32;;;;;;;6.18;2.38;;;;;;;-145.18;100.00;60484.78;5043230;28;20529;-68
2022/05/25 09:43:59;;;;;;;4.70;2.40;;;;;;;-145.18;100.00;60484.78;5029621;28;20147;-67
2022/05/25 09:46:29;;;;;;;5.70;2.30;;;;;;;-145.18;100.00;60484.78;5038041;28;20029;-68
2022/05/25 09:49:07;;;;;;;4.80;2.00;;;;;;;-145.18;100.00;60484.78;5042288;28;20033;-68
2022/05/25 09:51:50;;;;;;;5.82;2.20;;;;;;;-145.18;100.00;60484.78;5045071;28;20086;-68
2022/05/25 09:54:32;;;;;;;5.30;2.10;;;;;;;-145.18;100.00;60484.78;5046805;28;20029;-68
2022/05/25 09:57:16;;;;;;;4.03;1.88;;;;;;;-145.18;100.00;60484.78;5045792;28;20401;-68
2022/05/25 09:59:49;;;;;;;4.68;1.98;;;;;;;-145.18;100.00;60484.78;5044892;28;20056;-68
2022/05/25 10:02:41;;;;;;;5.25;2.03;;;;;;;-145.18;100.00;60484.78;5042537;28;20040;-68
2022/05/25 10:05:17;;;;;;;4.13;2.15;;;;;;;-145.18;100.00;60484.78;5044602;28;20036;-68
2022/05/25 10:07:55;;;;;;;3.75;1.70;;;;;;;-145.18;100.00;60484.78;5039753;28;20029;-67
2022/05/25 10:10:33;;;;;;;3.67;1.50;;;;;;;-145.18;100.00;60484.78;5039407;28;20036;-68
2022/05/25 10:13:17;;;;;;;5.13;1.77;;;;;;;-145.18;100.00;60484.78;5046849;28;20033;-67
2022/05/25 10:15:42;;;;;;;3.55;1.67;;;;;;;-145.18;100.00;60484.78;5046460;28;20036;-67
2022/05/25 10:18:13;;;;;;;5.30;2.13;;;;;;;-145.18;100.00;60484.78;5045877;28;20033;-68
2022/05/25 10:20:41;;;;;;;4.15;2.35;;;;;;;-145.18;100.00;60484.78;5045166;28;20033;-67
2022/05/25 10:23:11;;;;;;;4.93;2.10;;;;;;;-145.18;100.00;60484.78;5046368;28;20380;-67
2022/05/25 10:25:47;;;;;;;4.85;2.45;;;;;;;-145.18;100.00;60484.78;5041371;28;20025;-67
2022/05/25 10:28:20;;;;;;;3.78;2.10;;;;;;;-145.18;100.00;60484.78;5048636;28;20090;-68
2022/05/25 10:37:07;;;;;;;4.72;2.00;;;;;;;-145.18;100.00;60484.78;5046552;28;20052;-68
2022/05/25 10:39:36;;;;;;;6.40;2.08;;;;;;;-145.18;100.00;60484.78;5049699;28;20033;-68
2022/05/25 10:42:04;;;;;;;5.03;2.08;;;;;;;-145.18;100.00;60484.78;5043238;28;20199;-68
2022/05/25 10:44:40;;;;;;;4.40;2.03;;;;;;;-145.18;100.00;60484.78;5046478;28;20080;-68
2022/05/25 10:47:18;;;;;;;4.38;1.70;;;;;;;-145.18;100.00;60484.78;5047253;28;20037;-68
2022/05/25 10:49:43;;;;;;;4.10;1.60;;;;;;;-145.18;100.00;60484.78;5046463;28;20035;-67
2022/05/25 10:52:32;;;;;;;3.40;1.52;;;;;;;-145.18;100.00;60484.78;5050241;28;20033;-67
2022/05/25 10:54:57;;;;;;;4.15;1.50;;;;;;;-145.18;100.00;60484.78;5049330;28;20511;-68
2022/05/25 10:57:44;;;;;;;3.90;1.55;;;;;;;-145.18;100.00;60484.78;5040003;28;20025;-68
2022/05/25 11:00:45;;;;;;;3.63;1.40;;;;;;;-145.18;100.00;60484.78;5046473;28;20116;-68
2022/05/25 11:03:19;;;;;;;3.30;1.42;;;;;;;-145.18;100.00;60484.78;5049417;28;20055;-68
2022/05/25 11:06:04;;;;;;;3.40;1.50;;;;;;;-145.18;100.00;60484.78;5048222;28;20040;-68
2022/05/25 11:09:07;;;;;;;3.45;1.40;;;;;;;-145.18;100.00;60484.78;5041245;28;20042;-68
2022/05/25 11:11:46;;;;;;;3.17;1.33;;;;;;;-145.18;100.00;60484.78;5046962;28;20044;-68
2022/05/25 11:14:12;;;;;;;3.17;1.40;;;;;;;-145.18;100.00;60484.78;5049452;28;20485;-68
2022/05/25 11:16:59;;;;;;;3.20;1.50;;;;;;;-145.18;100.00;60484.78;5043664;28;20087;-67
2022/05/25 11:19:43;;;;;;;3.60;1.10;;;;;;;-145.18;100.00;60484.78;5041862;28;20762;-67
2022/05/25 11:22:30;;;;;;;2.72;1.10;;;;;;;-145.18;100.00;60484.78;5045100;28;20025;-67
2022/05/25 11:25:14;;;;;;;4.53;1.10;;;;;;;-145.18;100.00;60484.78;5049367;28;20035;-67
2022/05/25 11:28:10;;;;;;;3.65;1.08;;;;;;;-145.18;100.00;60484.78;5044967;28;20025;-67
2022/05/25 11:30:35;;;;;;;2.90;1.10;;;;;;;-145.18;100.00;60484.78;5047846;28;20024;-67
2022/05/25 11:33:13;;;;;;;3.15;1.27;;;;;;;-145.18;100.00;60484.78;5044960;28;20210;-68
2022/05/25 11:35:49;;;;;;;2.92;0.90;;;;;;;-145.18;100.00;60484.78;5048691;28;20048;-67
2022/05/25 11:38:39;;;;;;;3.72;1.00;;;;;;;-145.18;100.00;60484.78;5048222;28;20033;-68
2022/05/25 11:41:42;;;;;;;2.47;0.90;;;;;;;-145.18;100.00;60484.78;5041982;28;20049;-67